Time;durP1;ratioP1;P1;durP2;ratioP2;P2;SDS_P1;SDS_P2;PMS_P1;PMS_P2;Temp;Humidity;BMP_temperature;BMP_pressure;BME280_temperature;BME280_humidity;BME280_pressure;Samples;Min_cycle;Max_cycle;Signal;HPM_P1;HPM_P2
2021/03/22 00:00:14;;;;;;;12.13;5.63;;;6.00;99.90;;;;;;5076134;28;20233;-69
2021/03/22 00:02:42;;;;;;;11.80;5.50;;;5.80;99.90;;;;;;5076081;28;20665;-69
2021/03/22 00:05:09;;;;;;;12.13;5.28;;;5.80;99.90;;;;;;5076118;28;20241;-69
2021/03/22 00:07:35;;;;;;;14.32;5.47;;;5.80;99.90;;;;;;5076110;28;20569;-69
2021/03/22 00:10:03;;;;;;;16.02;5.53;;;5.80;99.90;;;;;;5076285;28;20198;-69
2021/03/22 00:12:29;;;;;;;14.70;4.97;;;5.80;99.90;;;;;;5076183;28;20293;-69
2021/03/22 00:14:55;;;;;;;8.85;4.57;;;5.90;99.90;;;;;;5076143;28;20621;-69
2021/03/22 00:17:22;;;;;;;9.15;5.88;;;5.90;99.90;;;;;;5075780;28;20203;-69
2021/03/22 00:19:49;;;;;;;10.73;5.55;;;6.00;99.90;;;;;;5076403;28;20249;-69
2021/03/22 00:22:15;;;;;;;16.27;5.40;;;6.00;99.90;;;;;;5076087;28;20629;-69
2021/03/22 00:24:42;;;;;;;11.40;5.35;;;6.00;99.90;;;;;;5076368;28;20309;-69
2021/03/22 00:27:09;;;;;;;15.32;5.93;;;6.00;99.90;;;;;;5075816;28;20325;-69
2021/03/22 00:29:35;;;;;;;11.07;5.85;;;6.00;99.90;;;;;;5075709;28;20211;-69
2021/03/22 00:32:02;;;;;;;14.85;4.90;;;6.10;99.90;;;;;;5075925;28;20198;-69
2021/03/22 00:34:28;;;;;;;12.40;5.13;;;6.10;99.90;;;;;;5075834;28;20245;-69
2021/03/22 00:36:55;;;;;;;10.05;5.03;;;6.20;99.90;;;;;;5075448;28;20209;-69
2021/03/22 00:39:22;;;;;;;10.27;5.32;;;6.10;99.90;;;;;;5075632;28;20267;-69
2021/03/22 00:41:49;;;;;;;14.25;5.68;;;6.20;99.90;;;;;;5075625;28;20297;-69
2021/03/22 00:44:15;;;;;;;12.82;5.60;;;6.20;99.90;;;;;;5075564;28;20313;-69
2021/03/22 00:46:41;;;;;;;10.77;4.00;;;6.20;99.90;;;;;;5075182;28;20207;-69
2021/03/22 00:49:08;;;;;;;10.43;4.35;;;6.30;99.90;;;;;;5075547;28;20584;-69
2021/03/22 00:51:34;;;;;;;10.88;5.13;;;6.20;99.90;;;;;;5075496;28;20302;-69
2021/03/22 00:54:02;;;;;;;11.32;4.80;;;6.00;99.90;;;;;;5075911;28;20313;-69
2021/03/22 00:56:28;;;;;;;14.88;5.00;;;6.00;99.90;;;;;;5075057;28;20238;-69
2021/03/22 00:58:54;;;;;;;11.00;5.22;;;6.10;99.90;;;;;;5075467;28;20244;-69
2021/03/22 01:01:20;;;;;;;18.15;5.28;;;6.10;99.90;;;;;;5075303;28;20613;-69
2021/03/22 01:03:47;;;;;;;10.85;4.85;;;6.20;99.90;;;;;;5075033;28;20229;-69
2021/03/22 01:06:13;;;;;;;10.75;4.43;;;6.20;99.90;;;;;;5075064;28;20243;-69
2021/03/22 01:08:41;;;;;;;9.75;4.63;;;6.10;99.90;;;;;;5074869;28;20199;-69
2021/03/22 01:11:11;;;;;;;9.98;4.60;;;6.20;99.90;;;;;;5075107;28;20293;-69
2021/03/22 01:13:39;;;;;;;10.55;5.40;;;6.20;99.90;;;;;;5074631;28;20768;-69
2021/03/22 01:16:06;;;;;;;9.43;4.25;;;6.20;99.90;;;;;;5074767;28;20568;-69
2021/03/22 01:18:35;;;;;;;15.32;4.28;;;6.20;99.90;;;;;;5074896;28;20265;-69
2021/03/22 01:21:07;;;;;;;14.70;4.18;;;6.10;99.90;;;;;;5074804;28;20209;-69
2021/03/22 01:23:33;;;;;;;9.10;4.60;;;6.10;99.90;;;;;;5074801;28;20233;-69
2021/03/22 01:26:00;;;;;;;7.43;4.00;;;6.10;99.90;;;;;;5074629;28;20618;-69
2021/03/22 01:28:27;;;;;;;9.57;4.25;;;6.10;99.90;;;;;;5074706;28;20289;-69
2021/03/22 01:30:58;;;;;;;13.60;4.68;;;6.10;99.90;;;;;;5074736;28;20234;-69
2021/03/22 01:33:27;;;;;;;13.32;3.60;;;5.90;99.90;;;;;;5074591;28;20695;-69
2021/03/22 01:35:57;;;;;;;10.18;3.63;;;6.00;99.90;;;;;;5074527;28;20575;-68
2021/03/22 01:38:24;;;;;;;9.88;4.03;;;5.90;99.90;;;;;;5074427;28;20211;-69
2021/03/22 01:41:27;;;;;;;16.23;4.22;;;5.90;99.90;;;;;;5074629;28;20247;-69
2021/03/22 01:44:13;;;;;;;13.93;4.25;;;5.90;99.90;;;;;;5017697;28;20227;-69
2021/03/22 01:46:43;;;;;;;7.90;3.50;;;5.80;99.90;;;;;;5074340;28;20202;-69
2021/03/22 01:49:10;;;;;;;8.55;3.78;;;5.90;99.90;;;;;;5074335;28;20205;-69
2021/03/22 01:51:37;;;;;;;9.93;3.95;;;5.90;99.90;;;;;;5074363;28;20203;-69
2021/03/22 01:54:04;;;;;;;14.38;4.43;;;6.00;99.90;;;;;;5073945;28;20229;-69
2021/03/22 01:56:34;;;;;;;10.32;3.42;;;6.00;99.90;;;;;;5074138;28;20759;-69
2021/03/22 01:59:01;;;;;;;10.75;3.70;;;6.00;99.90;;;;;;5074075;28;20222;-69
2021/03/22 02:01:30;;;;;;;8.18;3.90;;;6.00;99.90;;;;;;5073977;28;20710;-68
2021/03/22 02:03:56;;;;;;;11.85;4.55;;;6.00;99.90;;;;;;5073904;28;20317;-69
2021/03/22 02:06:24;;;;;;;13.52;3.85;;;6.00;99.90;;;;;;5073781;28;20223;-69
2021/03/22 02:08:54;;;;;;;11.68;3.88;;;5.80;99.90;;;;;;5074037;28;20368;-69
2021/03/22 02:11:22;;;;;;;8.38;3.67;;;5.80;99.90;;;;;;5074053;28;20203;-69
2021/03/22 02:13:50;;;;;;;8.55;3.72;;;5.70;99.90;;;;;;5074073;28;20310;-69
2021/03/22 02:16:20;;;;;;;7.78;3.33;;;5.80;99.90;;;;;;5073825;28;20259;-69
2021/03/22 02:19:00;;;;;;;7.55;3.90;;;5.80;99.90;;;;;;5074160;28;20582;-68
2021/03/22 02:21:57;;;;;;;9.95;4.25;;;5.70;99.90;;;;;;5073656;28;20289;-68
2021/03/22 02:24:44;;;;;;;10.75;3.88;;;5.70;99.90;;;;;;5073942;28;20683;-69
2021/03/22 02:27:48;;;;;;;8.63;3.60;;;5.70;99.90;;;;;;5073676;28;20213;-68
2021/03/22 02:30:48;;;;;;;8.50;3.58;;;5.80;99.90;;;;;;5073797;28;20652;-69
2021/03/22 02:33:47;;;;;;;7.18;3.45;;;5.80;99.90;;;;;;5073487;28;20700;-69
2021/03/22 02:36:19;;;;;;;7.00;2.90;;;5.80;99.90;;;;;;5073615;28;20237;-69
2021/03/22 02:38:49;;;;;;;7.05;3.60;;;5.80;99.90;;;;;;5073620;28;20598;-68
2021/03/22 02:41:20;;;;;;;5.40;3.58;;;5.60;99.90;;;;;;5073676;28;20209;-69
2021/03/22 02:44:00;;;;;;;10.05;3.75;;;5.60;99.90;;;;;;5073385;28;20244;-69
2021/03/22 02:46:28;;;;;;;9.70;3.20;;;5.60;99.90;;;;;;5073009;28;20301;-69
2021/03/22 02:48:54;;;;;;;5.82;3.20;;;5.70;99.90;;;;;;5073615;28;20274;-68
2021/03/22 02:51:29;;;;;;;10.23;3.78;;;5.70;99.90;;;;;;5073564;28;20230;-69
2021/03/22 02:54:03;;;;;;;5.55;2.50;;;5.70;99.90;;;;;;5073572;28;20232;-68
2021/03/22 02:56:35;;;;;;;14.82;3.70;;;5.70;99.90;;;;;;5073416;28;20637;-68
2021/03/22 02:59:10;;;;;;;6.95;3.35;;;5.70;99.90;;;;;;5073404;28;20650;-68
2021/03/22 03:01:39;;;;;;;11.40;2.85;;;5.70;99.90;;;;;;5073498;28;20567;-69
2021/03/22 03:04:08;;;;;;;10.52;3.47;;;5.70;99.90;;;;;;5073456;28;20648;-69
2021/03/22 03:06:47;;;;;;;18.13;3.30;;;5.70;99.90;;;;;;5073192;28;20245;-69
2021/03/22 03:09:14;;;;;;;8.43;2.83;;;5.70;99.90;;;;;;5073306;28;20575;-69
2021/03/22 03:11:40;;;;;;;8.27;3.55;;;5.80;99.90;;;;;;5073250;28;20199;-69
2021/03/22 03:14:07;;;;;;;5.75;3.20;;;5.80;99.90;;;;;;5073328;28;20309;-69
2021/03/22 03:16:33;;;;;;;7.53;2.92;;;5.90;99.90;;;;;;5073177;28;20557;-68
2021/03/22 03:19:00;;;;;;;12.48;3.22;;;5.70;99.90;;;;;;5073231;28;20348;-68
2021/03/22 03:21:26;;;;;;;5.97;1.98;;;5.60;99.90;;;;;;5073122;28;20207;-69
2021/03/22 03:23:53;;;;;;;6.80;3.13;;;5.70;99.90;;;;;;5073083;28;20317;-69
2021/03/22 03:26:20;;;;;;;16.15;3.45;;;5.70;99.90;;;;;;5072869;28;20684;-69
2021/03/22 03:28:46;;;;;;;6.18;3.00;;;5.60;99.90;;;;;;5073238;28;20565;-69
2021/03/22 03:31:13;;;;;;;5.22;2.95;;;5.70;99.90;;;;;;5073185;28;20271;-68
2021/03/22 03:33:39;;;;;;;5.55;2.70;;;5.70;99.90;;;;;;5076556;28;20225;-69
2021/03/22 03:36:06;;;;;;;6.57;2.97;;;5.70;99.90;;;;;;5076830;28;20320;-69
2021/03/22 03:38:32;;;;;;;7.70;2.50;;;5.70;99.90;;;;;;5076719;28;20207;-69
2021/03/22 03:40:59;;;;;;;10.90;2.78;;;5.70;99.90;;;;;;5076871;28;20298;-68
2021/03/22 03:43:26;;;;;;;4.03;2.65;;;5.80;99.90;;;;;;5076767;28;20250;-69
2021/03/22 03:45:53;;;;;;;8.98;3.60;;;5.70;99.90;;;;;;5076573;28;20293;-69
2021/03/22 03:48:21;;;;;;;5.68;2.60;;;5.60;99.90;;;;;;5076528;28;20298;-68
2021/03/22 03:50:48;;;;;;;9.77;2.25;;;5.70;99.90;;;;;;5076718;28;20280;-68
2021/03/22 03:53:15;;;;;;;10.90;2.45;;;5.70;99.90;;;;;;5076588;28;20225;-68
2021/03/22 03:55:42;;;;;;;5.05;2.65;;;5.70;99.90;;;;;;5076690;28;20719;-69
2021/03/22 03:58:09;;;;;;;7.15;2.33;;;5.70;99.90;;;;;;5076419;28;20207;-69
2021/03/22 04:00:39;;;;;;;4.07;2.70;;;5.70;99.90;;;;;;5076446;28;20230;-69
2021/03/22 04:03:22;;;;;;;12.27;3.45;;;5.80;99.90;;;;;;5076334;28;20223;-69
2021/03/22 04:05:53;;;;;;;7.70;3.03;;;5.60;99.90;;;;;;5076447;28;20191;-68
2021/03/22 04:08:19;;;;;;;10.05;3.20;;;5.60;99.90;;;;;;5075962;28;20665;-69
2021/03/22 04:10:46;;;;;;;8.52;2.53;;;5.70;99.90;;;;;;5076344;28;20199;-68
2021/03/22 04:13:14;;;;;;;11.70;3.20;;;5.70;99.90;;;;;;5076017;28;20222;-69
2021/03/22 04:15:41;;;;;;;8.52;3.10;;;5.70;99.90;;;;;;5075939;28;20203;-68
2021/03/22 04:18:07;;;;;;;4.45;2.33;;;5.70;99.90;;;;;;5075997;28;20234;-68
2021/03/22 04:20:33;;;;;;;5.45;2.15;;;5.60;99.90;;;;;;5075815;28;20266;-68
2021/03/22 04:23:00;;;;;;;6.10;2.10;;;5.60;99.90;;;;;;5075937;28;20209;-68
2021/03/22 04:25:26;;;;;;;4.95;2.08;;;5.50;99.90;;;;;;5076153;28;20609;-68
2021/03/22 04:27:52;;;;;;;7.82;2.75;;;5.40;99.90;;;;;;5075901;28;20289;-68
2021/03/22 04:30:21;;;;;;;4.03;2.80;;;5.30;99.90;;;;;;5076006;28;20203;-68
2021/03/22 04:32:48;;;;;;;4.75;2.53;;;5.20;99.90;;;;;;5075747;28;20199;-68
2021/03/22 04:35:14;;;;;;;7.43;2.28;;;5.20;99.90;;;;;;5075952;28;20198;-68
2021/03/22 04:37:40;;;;;;;4.82;1.90;;;5.30;99.90;;;;;;5075629;28;20284;-69
2021/03/22 04:40:09;;;;;;;6.15;2.17;;;5.40;99.90;;;;;;5075693;28;20222;-68
2021/03/22 04:42:35;;;;;;;8.48;2.33;;;5.40;99.90;;;;;;5075149;28;20301;-69
2021/03/22 04:45:03;;;;;;;3.58;2.40;;;5.60;99.90;;;;;;5075465;28;20342;-69
2021/03/22 04:47:30;;;;;;;2.90;1.60;;;5.70;99.90;;;;;;5075184;28;20660;-68
2021/03/22 04:49:56;;;;;;;4.45;2.28;;;5.70;99.90;;;;;;5075359;28;20286;-69
2021/03/22 04:52:23;;;;;;;6.85;2.45;;;5.70;99.90;;;;;;5075528;28;20620;-69
2021/03/22 04:54:49;;;;;;;12.85;3.70;;;5.70;99.90;;;;;;5075214;28;20222;-69
2021/03/22 04:57:25;;;;;;;5.55;2.13;;;5.80;99.90;;;;;;5075147;28;20205;-69
2021/03/22 04:59:52;;;;;;;5.00;2.83;;;5.70;99.90;;;;;;5075261;28;20699;-68
2021/03/22 05:02:18;;;;;;;6.28;2.45;;;5.60;99.90;;;;;;5075639;28;20624;-69
2021/03/22 05:04:46;;;;;;;7.78;2.92;;;5.50;99.90;;;;;;5075342;28;20257;-68
2021/03/22 05:07:13;;;;;;;4.20;2.20;;;5.60;99.90;;;;;;5074850;28;20302;-68
2021/03/22 05:09:40;;;;;;;6.20;2.58;;;5.60;99.90;;;;;;5075142;28;20203;-68
2021/03/22 05:12:08;;;;;;;5.65;2.65;;;5.60;99.90;;;;;;5075124;28;20298;-68
2021/03/22 05:14:34;;;;;;;7.13;2.13;;;5.60;99.90;;;;;;5074756;28;20223;-69
2021/03/22 05:17:02;;;;;;;2.78;1.55;;;5.60;99.90;;;;;;5074855;28;20209;-68
2021/03/22 05:19:29;;;;;;;5.20;2.00;;;5.60;99.90;;;;;;5074629;28;20229;-68
2021/03/22 05:21:57;;;;;;;8.52;2.30;;;5.60;99.90;;;;;;5075297;28;20373;-68
2021/03/22 05:24:24;;;;;;;10.45;2.33;;;5.50;99.90;;;;;;5074718;28;20226;-68
2021/03/22 05:26:50;;;;;;;6.65;2.13;;;5.40;99.90;;;;;;5074587;28;20336;-68
2021/03/22 05:29:18;;;;;;;5.20;2.72;;;5.40;99.90;;;;;;5074698;28;20195;-68
2021/03/22 05:31:44;;;;;;;4.10;2.00;;;5.40;99.90;;;;;;5074742;28;20244;-68
2021/03/22 05:34:10;;;;;;;7.88;1.95;;;5.30;99.90;;;;;;5074651;28;20223;-68
2021/03/22 05:36:37;;;;;;;6.72;2.53;;;5.40;99.90;;;;;;5074386;28;20294;-68
2021/03/22 05:39:05;;;;;;;6.88;2.38;;;5.40;99.90;;;;;;5074452;28;20726;-68
2021/03/22 05:41:43;;;;;;;7.53;2.05;;;5.40;99.90;;;;;;5074418;28;20202;-68
2021/03/22 05:44:19;;;;;;;7.95;2.10;;;5.40;99.90;;;;;;5074505;28;20305;-69
2021/03/22 05:46:49;;;;;;;7.10;2.70;;;5.40;99.90;;;;;;5074290;28;20217;-69
2021/03/22 05:49:27;;;;;;;2.85;1.95;;;5.50;99.70;;;;;;5074504;28;20207;-68
2021/03/22 05:52:26;;;;;;;6.60;2.10;;;5.40;99.70;;;;;;5074382;28;20213;-68
2021/03/22 05:55:25;;;;;;;6.55;2.10;;;5.40;99.30;;;;;;5073525;28;20333;-68
2021/03/22 05:58:10;;;;;;;3.92;2.05;;;5.20;99.20;;;;;;5063742;28;20297;-68
2021/03/22 06:00:54;;;;;;;5.43;1.55;;;5.00;99.80;;;;;;5074085;28;20229;-68
2021/03/22 06:03:30;;;;;;;4.35;1.60;;;5.10;99.90;;;;;;5074092;28;20227;-68
2021/03/22 06:06:09;;;;;;;1.90;1.40;;;5.10;99.90;;;;;;5073996;28;20294;-69
2021/03/22 06:08:43;;;;;;;3.92;2.10;;;5.10;99.80;;;;;;5073990;28;20298;-68
2021/03/22 06:11:22;;;;;;;7.03;1.80;;;5.00;99.90;;;;;;5074118;28;20591;-68
2021/03/22 06:13:55;;;;;;;11.13;2.10;;;4.90;99.90;;;;;;5073926;28;20229;-68
2021/03/22 06:16:25;;;;;;;4.70;2.00;;;5.00;99.90;;;;;;5073746;28;20565;-69
2021/03/22 06:18:58;;;;;;;7.45;2.28;;;5.20;99.90;;;;;;5073828;28;20234;-69
2021/03/22 06:21:26;;;;;;;7.47;2.92;;;5.40;99.90;;;;;;5073921;28;20283;-68
2021/03/22 06:23:53;;;;;;;8.63;2.20;;;5.60;99.90;;;;;;5073829;28;20233;-69
2021/03/22 06:26:33;;;;;;;4.60;1.50;;;5.70;99.90;;;;;;5073630;28;20288;-69
2021/03/22 06:29:06;;;;;;;3.92;1.60;;;5.80;99.90;;;;;;5073665;28;20305;-69
2021/03/22 06:31:33;;;;;;;7.55;2.42;;;5.80;99.90;;;;;;5073479;28;20313;-69
2021/03/22 06:34:04;;;;;;;4.90;2.25;;;5.70;99.90;;;;;;5073756;28;20623;-68
2021/03/22 06:36:31;;;;;;;5.50;2.10;;;5.70;99.90;;;;;;5073517;28;20206;-69
2021/03/22 06:38:59;;;;;;;12.18;3.22;;;5.60;99.90;;;;;;5073583;28;20263;-68
2021/03/22 06:41:32;;;;;;;8.23;3.22;;;5.60;99.90;;;;;;5073707;28;20199;-69
2021/03/22 06:44:02;;;;;;;7.25;2.17;;;5.60;99.90;;;;;;5073437;28;20357;-69
2021/03/22 06:46:29;;;;;;;6.35;2.30;;;5.50;99.90;;;;;;5073813;28;20216;-69
2021/03/22 06:49:00;;;;;;;7.07;2.67;;;5.50;99.90;;;;;;5073608;28;20245;-69
2021/03/22 06:51:27;;;;;;;10.80;2.25;;;5.50;99.90;;;;;;5073554;28;20202;-68
2021/03/22 06:53:57;;;;;;;8.40;3.15;;;5.60;99.90;;;;;;5073240;28;20608;-69
2021/03/22 06:56:26;;;;;;;4.90;2.20;;;5.50;99.90;;;;;;5073218;28;20225;-69
2021/03/22 06:59:09;;;;;;;8.02;3.25;;;5.50;99.90;;;;;;5073316;28;20340;-69
2021/03/22 07:01:37;;;;;;;10.98;2.70;;;5.60;99.90;;;;;;5073511;28;20736;-69
2021/03/22 07:04:23;;;;;;;8.65;3.05;;;5.70;99.90;;;;;;5073323;28;20229;-69
2021/03/22 07:07:15;;;;;;;6.50;2.45;;;5.70;99.90;;;;;;5075747;28;20316;-69
2021/03/22 07:09:45;;;;;;;8.10;3.20;;;5.80;99.90;;;;;;5077465;28;20199;-69
2021/03/22 07:12:25;;;;;;;9.43;2.55;;;5.90;99.90;;;;;;5077422;28;20293;-69
2021/03/22 07:14:52;;;;;;;9.32;2.75;;;5.90;99.90;;;;;;5077685;28;20222;-69
2021/03/22 07:17:21;;;;;;;9.43;2.40;;;6.00;99.90;;;;;;5076961;28;20206;-69
2021/03/22 07:20:08;;;;;;;7.40;2.60;;;5.80;99.90;;;;;;5076898;28;20226;-69
2021/03/22 07:22:35;;;;;;;3.33;2.10;;;5.70;99.90;;;;;;5077236;28;20206;-69
2021/03/22 07:25:07;;;;;;;9.80;2.88;;;5.80;99.90;;;;;;5077438;28;20313;-69
2021/03/22 07:27:41;;;;;;;8.95;2.72;;;5.80;99.90;;;;;;5076741;28;20206;-69
2021/03/22 07:30:25;;;;;;;5.88;2.30;;;5.80;99.90;;;;;;5077071;28;20293;-69
2021/03/22 07:33:23;;;;;;;4.72;2.28;;;5.80;99.90;;;;;;5077096;28;20242;-69
2021/03/22 07:36:18;;;;;;;7.85;3.35;;;5.80;99.90;;;;;;5076511;28;20291;-69
2021/03/22 07:39:30;;;;;;;6.05;2.60;;;5.60;99.90;;;;;;5074528;28;20583;-69
2021/03/22 07:42:31;;;;;;;10.10;3.08;;;5.50;99.90;;;;;;5076912;28;20650;-69
2021/03/22 07:45:20;;;;;;;6.72;2.47;;;5.50;99.90;;;;;;5076444;28;20235;-69
2021/03/22 07:48:01;;;;;;;4.55;2.38;;;5.50;99.90;;;;;;5076765;28;20203;-69
2021/03/22 07:50:32;;;;;;;9.20;3.20;;;5.50;99.90;;;;;;5077029;28;20194;-69
2021/03/22 07:53:02;;;;;;;9.70;2.50;;;5.70;99.90;;;;;;5076800;28;20218;-69
2021/03/22 07:55:51;;;;;;;8.98;2.35;;;5.70;99.90;;;;;;5076657;28;20199;-69
2021/03/22 07:58:48;;;;;;;5.38;2.28;;;5.70;99.90;;;;;;5076422;28;20210;-69
2021/03/22 08:01:21;;;;;;;9.18;3.42;;;5.80;99.90;;;;;;5076423;28;20386;-69
2021/03/22 08:04:06;;;;;;;5.47;2.10;;;5.90;99.90;;;;;;5076487;28;20303;-69
2021/03/22 08:06:44;;;;;;;4.75;2.30;;;6.00;99.90;;;;;;5076201;28;20199;-69
2021/03/22 08:09:22;;;;;;;8.55;2.13;;;6.20;99.90;;;;;;5076401;28;20263;-69
2021/03/22 08:11:54;;;;;;;5.40;2.35;;;6.10;99.90;;;;;;5076368;28;20207;-69
2021/03/22 08:14:27;;;;;;;3.35;1.42;;;6.00;99.90;;;;;;5076065;28;20223;-69
2021/03/22 08:17:19;;;;;;;5.13;1.80;;;5.90;99.90;;;;;;5075874;28;20265;-69
2021/03/22 08:19:52;;;;;;;4.85;1.45;;;5.70;99.90;;;;;;5076060;28;20316;-69
2021/03/22 08:22:25;;;;;;;4.63;1.73;;;5.60;99.90;;;;;;5075937;28;20289;-69
2021/03/22 08:25:02;;;;;;;4.70;1.70;;;5.70;99.90;;;;;;5076124;28;20648;-69
2021/03/22 08:27:33;;;;;;;3.65;1.77;;;5.70;99.90;;;;;;5075800;28;20210;-69
2021/03/22 08:30:07;;;;;;;4.20;1.50;;;5.60;99.90;;;;;;5076040;28;20226;-69
2021/03/22 08:32:41;;;;;;;4.10;1.55;;;5.50;99.90;;;;;;5075909;28;20637;-69
2021/03/22 08:35:16;;;;;;;4.13;1.95;;;5.80;99.90;;;;;;5075875;28;20254;-69
2021/03/22 08:37:47;;;;;;;2.05;1.13;;;5.80;99.60;;;;;;5075723;28;20206;-69
2021/03/22 08:40:17;;;;;;;1.75;1.45;;;5.90;99.60;;;;;;5075739;28;20218;-69
2021/03/22 08:42:47;;;;;;;4.00;1.95;;;6.00;99.40;;;;;;5076171;28;20651;-69
2021/03/22 08:45:24;;;;;;;3.10;1.45;;;5.90;99.40;;;;;;5075393;28;20214;-69
2021/03/22 08:47:55;;;;;;;6.57;1.88;;;5.80;99.70;;;;;;5075533;28;20293;-68
2021/03/22 08:50:25;;;;;;;5.40;2.00;;;5.70;99.90;;;;;;5075582;28;20202;-69
2021/03/22 08:52:57;;;;;;;2.78;1.63;;;6.00;99.90;;;;;;5075543;28;20225;-69
2021/03/22 08:55:26;;;;;;;7.88;1.60;;;6.30;99.90;;;;;;5075186;28;20242;-69
2021/03/22 08:58:03;;;;;;;3.95;1.80;;;6.50;99.50;;;;;;5075289;28;20255;-69
2021/03/22 09:00:35;;;;;;;7.25;1.80;;;6.60;98.40;;;;;;5075386;28;20233;-69
2021/03/22 09:03:03;;;;;;;5.68;2.08;;;6.60;98.20;;;;;;5075305;28;20233;-69
2021/03/22 09:05:34;;;;;;;4.97;2.58;;;6.60;98.60;;;;;;5075383;28;20202;-69
2021/03/22 09:08:20;;;;;;;5.30;1.85;;;6.80;99.30;;;;;;5074891;28;20665;-69
2021/03/22 09:10:49;;;;;;;2.85;2.35;;;6.90;98.70;;;;;;5075581;28;20213;-69
2021/03/22 09:13:29;;;;;;;5.72;1.75;;;6.90;97.60;;;;;;5075061;28;20222;-69
2021/03/22 09:16:38;;;;;;;3.58;1.73;;;6.70;98.10;;;;;;5075099;28;20187;-69
2021/03/22 09:19:39;;;;;;;5.38;2.20;;;6.60;97.90;;;;;;5074947;28;20299;-69
2021/03/22 09:22:45;;;;;;;4.15;1.67;;;6.50;98.10;;;;;;5071161;28;20198;-69
2021/03/22 09:25:33;;;;;;;4.07;1.88;;;6.30;98.90;;;;;;5075018;28;20225;-69
2021/03/22 09:28:21;;;;;;;3.55;1.70;;;6.50;99.10;;;;;;5074840;28;20203;-69
2021/03/22 09:30:55;;;;;;;5.10;1.50;;;6.40;98.80;;;;;;5074790;28;20298;-69
2021/03/22 09:33:49;;;;;;;3.88;1.80;;;6.40;99.00;;;;;;5074453;28;20226;-69
2021/03/22 09:36:30;;;;;;;3.17;1.30;;;6.60;98.50;;;;;;5074561;28;20251;-69
2021/03/22 09:38:58;;;;;;;3.25;1.35;;;6.60;98.60;;;;;;5074617;28;20229;-69
2021/03/22 09:42:01;;;;;;;2.38;1.48;;;6.70;98.70;;;;;;5074425;28;20230;-69
2021/03/22 09:44:32;;;;;;;3.67;1.67;;;6.60;98.10;;;;;;5074549;28;20592;-70
2021/03/22 09:47:17;;;;;;;4.10;1.45;;;6.50;98.50;;;;;;5074076;28;20210;-69
2021/03/22 09:50:22;;;;;;;2.88;1.85;;;6.30;98.90;;;;;;5074452;28;20217;-69
2021/03/22 09:53:15;;;;;;;2.70;1.90;;;6.00;99.20;;;;;;5071776;28;20664;-69
2021/03/22 09:56:03;;;;;;;4.82;2.42;;;6.20;99.30;;;;;;5074424;28;20198;-69
2021/03/22 09:58:37;;;;;;;6.07;2.08;;;6.20;99.20;;;;;;5074318;28;20224;-69
2021/03/22 10:01:07;;;;;;;6.30;1.90;;;6.30;99.10;;;;;;5074129;28;20268;-70
2021/03/22 10:03:45;;;;;;;9.20;1.98;;;6.40;98.80;;;;;;5074088;28;20272;-69
2021/03/22 10:06:55;;;;;;;6.95;1.90;;;6.50;98.20;;;;;;5073988;28;20183;-70
2021/03/22 10:09:26;;;;;;;2.55;1.60;;;6.60;97.90;;;;;;5053915;28;20207;-69
2021/03/22 10:11:55;;;;;;;2.38;2.00;;;6.90;98.30;;;;;;5073958;28;20390;-69
2021/03/22 10:14:30;;;;;;;4.35;1.73;;;7.00;97.50;;;;;;5074015;28;20280;-69
2021/03/22 10:16:59;;;;;;;7.35;4.13;;;7.20;97.80;;;;;;5073846;28;20202;-69
2021/03/22 10:19:28;;;;;;;3.47;1.83;;;7.50;96.90;;;;;;5073742;28;20226;-69
2021/03/22 10:21:57;;;;;;;4.22;1.65;;;7.40;95.80;;;;;;5073890;28;20203;-69
2021/03/22 10:24:36;;;;;;;6.10;2.80;;;7.50;96.10;;;;;;5073794;28;20314;-69
2021/03/22 10:27:18;;;;;;;9.63;2.30;;;7.30;96.20;;;;;;5073511;28;20298;-69
2021/03/22 10:29:45;;;;;;;3.05;1.50;;;7.40;95.90;;;;;;5073793;28;20207;-69
2021/03/22 10:32:22;;;;;;;5.93;1.75;;;7.50;96.00;;;;;;5073805;28;20234;-69
2021/03/22 10:34:51;;;;;;;3.42;1.60;;;6.90;95.40;;;;;;5073528;28;20223;-69
2021/03/22 10:37:21;;;;;;;3.90;1.75;;;6.60;96.70;;;;;;5073435;28;20301;-69
2021/03/22 10:39:48;;;;;;;3.83;1.73;;;6.70;96.90;;;;;;5073758;28;20364;-68
2021/03/22 10:42:37;;;;;;;3.05;1.90;;;6.50;97.80;;;;;;5073316;28;20202;-69
2021/03/22 10:45:38;;;;;;;1.45;1.33;;;6.50;98.10;;;;;;5073429;28;20326;-69
2021/03/22 10:48:39;;;;;;;5.10;1.60;;;6.60;98.20;;;;;;5011468;28;20208;-68
2021/03/22 10:51:15;;;;;;;3.15;1.50;;;6.60;98.20;;;;;;5031498;28;20200;-69
2021/03/22 10:53:59;;;;;;;5.07;1.92;;;6.70;98.00;;;;;;5031450;28;20227;-68
2021/03/22 10:56:34;;;;;;;2.63;1.52;;;6.70;98.20;;;;;;5058018;28;20206;-69
2021/03/22 10:59:07;;;;;;;2.40;1.80;;;6.80;97.60;;;;;;5073677;28;20288;-69
2021/03/22 11:01:36;;;;;;;5.70;1.90;;;6.80;97.60;;;;;;5073409;28;20317;-68
2021/03/22 11:04:06;;;;;;;2.90;1.50;;;6.50;97.30;;;;;;5073295;28;20650;-68
2021/03/22 11:06:36;;;;;;;3.45;1.65;;;6.50;98.10;;;;;;5072951;28;20721;-68
2021/03/22 11:09:07;;;;;;;6.13;2.55;;;6.70;98.30;;;;;;5073511;28;20310;-69
2021/03/22 11:11:34;;;;;;;5.10;2.00;;;6.80;97.30;;;;;;5073476;28;20297;-69
2021/03/22 11:14:05;;;;;;;3.50;1.85;;;6.80;97.70;;;;;;5073139;28;20232;-68
2021/03/22 11:16:35;;;;;;;3.78;2.05;;;7.00;97.60;;;;;;5073261;28;20256;-68
2021/03/22 11:19:10;;;;;;;3.95;1.95;;;7.20;97.00;;;;;;5073219;28;20238;-69
2021/03/22 11:21:39;;;;;;;4.25;2.50;;;7.20;96.90;;;;;;5073185;28;20237;-69
2021/03/22 11:24:14;;;;;;;6.03;1.95;;;7.00;97.40;;;;;;5072985;28;20792;-69
2021/03/22 11:26:56;;;;;;;6.78;1.92;;;7.00;97.80;;;;;;5073028;28;20285;-69
2021/03/22 11:29:24;;;;;;;2.95;1.60;;;7.10;97.00;;;;;;5073187;28;20313;-69
2021/03/22 11:31:57;;;;;;;7.13;1.70;;;7.10;96.80;;;;;;5073325;28;20340;-69
2021/03/22 11:34:29;;;;;;;6.40;1.95;;;7.20;96.60;;;;;;5073183;28;20218;-69
2021/03/22 11:37:03;;;;;;;3.70;2.13;;;7.30;96.40;;;;;;5072857;28;20264;-69
2021/03/22 11:39:33;;;;;;;1.65;1.40;;;7.40;96.00;;;;;;5073021;28;20244;-69
2021/03/22 11:42:07;;;;;;;7.82;1.80;;;7.20;96.00;;;;;;5073084;28;20685;-68
2021/03/22 11:44:36;;;;;;;2.63;1.65;;;7.20;96.30;;;;;;5073004;28;20242;-69
2021/03/22 11:47:43;;;;;;;4.40;2.45;;;7.30;95.70;;;;;;5073248;28;20244;-68
2021/03/22 11:50:36;;;;;;;4.30;2.13;;;7.20;96.40;;;;;;5072969;28;20199;-69
2021/03/22 11:53:13;;;;;;;4.30;1.63;;;7.50;96.00;;;;;;5073964;28;20293;-69
2021/03/22 11:55:43;;;;;;;2.80;1.75;;;7.90;95.30;;;;;;5076726;28;20214;-69
2021/03/22 11:58:32;;;;;;;3.10;2.00;;;8.10;94.70;;;;;;5076532;28;20203;-69
2021/03/22 12:01:13;;;;;;;2.55;1.70;;;8.00;93.70;;;;;;5076511;28;20641;-69
2021/03/22 12:03:40;;;;;;;2.72;2.03;;;8.20;94.30;;;;;;5076352;28;20275;-69
2021/03/22 12:06:10;;;;;;;3.10;1.90;;;8.40;93.60;;;;;;5076384;28;20294;-69
2021/03/22 12:08:39;;;;;;;4.22;2.15;;;8.10;93.20;;;;;;5076482;28;20255;-69
2021/03/22 12:11:08;;;;;;;2.75;2.10;;;8.00;93.30;;;;;;5076312;28;20205;-69
2021/03/22 12:13:34;;;;;;;2.63;2.20;;;8.00;93.60;;;;;;5076297;28;20314;-69
2021/03/22 12:16:01;;;;;;;3.58;2.10;;;8.00;93.60;;;;;;5076050;28;20673;-69
2021/03/22 12:18:31;;;;;;;5.78;2.05;;;8.00;94.10;;;;;;5076273;28;20578;-69
2021/03/22 12:20:58;;;;;;;3.15;2.17;;;8.20;93.80;;;;;;5076065;28;20222;-69
2021/03/22 12:23:26;;;;;;;2.80;1.70;;;8.30;93.20;;;;;;5076027;28;20218;-69
2021/03/22 12:25:52;;;;;;;1.80;1.55;;;8.00;93.00;;;;;;5076105;28;20285;-69
2021/03/22 12:28:19;;;;;;;2.55;1.70;;;7.90;93.30;;;;;;5076000;28;20627;-69
2021/03/22 12:30:45;;;;;;;1.67;1.50;;;7.90;93.80;;;;;;5075861;28;20207;-69
2021/03/22 12:33:19;;;;;;;3.33;1.92;;;7.70;93.50;;;;;;5075869;28;20223;-69
2021/03/22 12:35:46;;;;;;;4.53;2.28;;;7.80;94.50;;;;;;5075990;28;20571;-69
2021/03/22 12:38:13;;;;;;;5.65;2.40;;;7.80;94.50;;;;;;5075660;28;20252;-69
2021/03/22 12:40:42;;;;;;;5.53;2.28;;;7.80;94.50;;;;;;5075467;28;20223;-69
2021/03/22 12:43:19;;;;;;;5.28;2.50;;;7.70;94.90;;;;;;5075518;28;20734;-68
2021/03/22 12:45:45;;;;;;;3.67;1.90;;;7.40;95.20;;;;;;5075535;28;20217;-69
2021/03/22 12:48:11;;;;;;;7.10;2.55;;;7.40;95.80;;;;;;5075510;28;20206;-68
2021/03/22 12:50:40;;;;;;;2.40;2.20;;;7.40;95.90;;;;;;5075607;28;20289;-69
2021/03/22 12:53:09;;;;;;;5.38;3.10;;;7.50;96.10;;;;;;5075510;28;20313;-69
2021/03/22 12:55:36;;;;;;;4.15;2.40;;;7.60;95.80;;;;;;5075551;28;20301;-69
2021/03/22 12:58:08;;;;;;;4.05;2.20;;;7.70;96.10;;;;;;5075343;28;20290;-69
2021/03/22 13:00:35;;;;;;;3.83;2.55;;;7.60;95.30;;;;;;5075422;28;20219;-69
2021/03/22 13:03:01;;;;;;;4.07;1.70;;;7.30;95.80;;;;;;5075244;28;20209;-69
2021/03/22 13:05:29;;;;;;;4.93;2.45;;;7.40;96.30;;;;;;5075031;28;20198;-68
2021/03/22 13:07:56;;;;;;;4.03;1.90;;;7.10;96.10;;;;;;5075078;28;20205;-69
2021/03/22 13:10:25;;;;;;;5.75;2.17;;;7.20;96.50;;;;;;5075317;28;20222;-69
2021/03/22 13:12:51;;;;;;;5.68;2.80;;;7.10;96.70;;;;;;5075192;28;20205;-69
2021/03/22 13:15:29;;;;;;;4.35;2.90;;;7.10;96.80;;;;;;5074994;28;20279;-69
2021/03/22 13:17:56;;;;;;;4.18;2.97;;;7.20;96.80;;;;;;5074645;28;20203;-69
2021/03/22 13:20:24;;;;;;;5.70;2.58;;;7.30;96.70;;;;;;5074995;28;20313;-68
2021/03/22 13:22:51;;;;;;;3.15;2.25;;;7.40;96.20;;;;;;5074912;28;20206;-69
2021/03/22 13:25:17;;;;;;;4.93;2.88;;;7.40;96.20;;;;;;5075466;28;20209;-69